createdAt,value
2022-12-18T00:01:40.029Z,101213.71
2022-12-18T00:04:22.344Z,101213.02
2022-12-18T00:06:55.008Z,101211.27
2022-12-18T00:09:39.627Z,101217.20
2022-12-18T00:14:50.999Z,101227.66
2022-12-18T00:17:23.280Z,101225.39
2022-12-18T00:19:55.485Z,101226.96
2022-12-18T00:22:27.837Z,101226.08
2022-12-18T00:25:00.211Z,101230.79
2022-12-18T00:27:32.456Z,101234.63
2022-12-18T00:30:05.059Z,101243.19
2022-12-18T00:32:38.117Z,101246.67
2022-12-18T00:35:11.585Z,101247.19
2022-12-18T00:37:43.529Z,101252.96
2022-12-18T00:40:18.160Z,101253.85
2022-12-18T00:42:59.396Z,101259.25
2022-12-18T00:45:33.321Z,101264.14
2022-12-18T00:48:05.903Z,101267.45
2022-12-18T00:50:37.956Z,101267.97
2022-12-18T00:53:12.372Z,101266.73
2022-12-18T00:55:45.272Z,101270.40
2022-12-18T00:58:18.754Z,101270.40
2022-12-18T01:00:50.918Z,101273.38
2022-12-18T01:03:23.092Z,101273.02
2022-12-18T01:05:55.366Z,101275.13
2022-12-18T01:08:28.866Z,101274.95
2022-12-18T01:11:00.932Z,101274.09
2022-12-18T01:13:33.099Z,101273.91
2022-12-18T01:16:05.501Z,101276.19
2022-12-18T01:18:39.684Z,101278.28
2022-12-18T01:21:13.949Z,101275.14
2022-12-18T01:23:48.423Z,101280.02
2022-12-18T01:26:22.685Z,101283.69
2022-12-18T01:28:58.155Z,101290.33
2022-12-18T01:31:32.261Z,101296.10
2022-12-18T01:34:06.545Z,101299.95
2022-12-18T01:36:42.277Z,101299.61
2022-12-18T01:39:17.038Z,101299.45
2022-12-18T01:42:04.844Z,101303.30
2022-12-18T01:44:58.341Z,101310.46
2022-12-18T01:47:35.500Z,101317.63
2022-12-18T01:50:11.307Z,101318.85
2022-12-18T01:52:49.255Z,101321.80
2022-12-18T01:55:24.806Z,101324.79
2022-12-18T01:57:59.730Z,101328.45
2022-12-18T02:00:32.521Z,101331.95
2022-12-18T02:03:05.341Z,101335.62
2022-12-18T02:05:47.239Z,101337.88
2022-12-18T02:08:22.857Z,101337.19
2022-12-18T02:11:07.205Z,101339.11
2022-12-18T02:13:48.488Z,101340.67
2022-12-18T02:16:23.755Z,101343.30
2022-12-18T02:19:00.932Z,101348.02
2022-12-18T02:21:39.432Z,101344.69
2022-12-18T02:24:31.297Z,101353.77
2022-12-18T02:27:07.352Z,101353.95
2022-12-18T02:29:45.020Z,101355.35
2022-12-18T02:32:22.336Z,101355.17
2022-12-18T02:34:56.525Z,101358.67
2022-12-18T02:37:30.471Z,101366.36
2022-12-18T02:40:08.654Z,101363.20
2022-12-18T02:42:41.669Z,101364.96
2022-12-18T02:45:14.926Z,101364.79
2022-12-18T02:47:51.858Z,101371.06
2022-12-18T02:50:31.450Z,101371.94
2022-12-18T02:53:13.446Z,101375.60
2022-12-18T02:55:55.882Z,101384.15
2022-12-18T02:58:36.116Z,101384.14
2022-12-18T03:01:17.989Z,101385.02
2022-12-18T03:03:54.246Z,101386.23
2022-12-18T03:06:32.077Z,101395.30
2022-12-18T03:09:09.673Z,101392.51
2022-12-18T03:12:03.355Z,101396.87
2022-12-18T03:14:40.278Z,101397.73
2022-12-18T03:17:23.863Z,101398.77
2022-12-18T03:20:01.152Z,101399.30
2022-12-18T03:22:35.779Z,101397.55
2022-12-18T03:25:11.974Z,101396.33
2022-12-18T03:27:48.723Z,101399.13
2022-12-18T03:30:21.807Z,101402.61
2022-12-18T03:33:00.665Z,101409.59
2022-12-18T03:35:37.718Z,101415.70
2022-12-18T03:38:11.350Z,101413.95
2022-12-18T03:40:53.420Z,101411.32
2022-12-18T03:43:37.769Z,101409.73
2022-12-18T03:46:19.231Z,101414.11
2022-12-18T03:49:04.436Z,101413.39
2022-12-18T03:51:44.899Z,101417.94
2022-12-18T03:54:19.253Z,101421.08
2022-12-18T03:57:03.677Z,101424.23
2022-12-18T03:59:37.558Z,101431.20
2022-12-18T04:02:11.461Z,101438.71
2022-12-18T04:04:45.507Z,101441.50
2022-12-18T04:07:18.514Z,101440.61
2022-12-18T04:09:53.298Z,101440.08
2022-12-18T04:12:31.232Z,101442.52
2022-12-18T04:15:03.529Z,101445.83
2022-12-18T04:17:36.184Z,101449.14
2022-12-18T04:20:10.099Z,101463.11
2022-12-18T04:22:42.495Z,101465.73
2022-12-18T04:25:18.108Z,101466.43
2022-12-18T04:27:59.394Z,101467.30
2022-12-18T04:30:31.466Z,101465.73
2022-12-18T04:33:03.531Z,101469.23
2022-12-18T04:35:36.413Z,101471.18
2022-12-18T04:38:10.392Z,101468.21
2022-12-18T04:40:43.126Z,101473.48
2022-12-18T04:43:21.426Z,101478.55
2022-12-18T04:45:53.587Z,101482.91
2022-12-18T04:48:25.835Z,101482.05
2022-12-18T04:50:57.891Z,101486.95
2022-12-18T04:53:30.096Z,101489.58
2022-12-18T04:56:10.786Z,101492.73
2022-12-18T04:58:45.506Z,101489.94
2022-12-18T05:01:20.915Z,101488.20
2022-12-18T05:03:54.619Z,101486.80
2022-12-18T05:06:26.809Z,101494.14
2022-12-18T05:08:59.187Z,101497.45
2022-12-18T05:11:31.249Z,101496.41
2022-12-18T05:14:03.313Z,101494.83
2022-12-18T05:16:35.254Z,101493.95
2022-12-18T05:19:07.349Z,101496.22
2022-12-18T05:21:39.383Z,101496.92
2022-12-18T05:24:11.812Z,101495.00
2022-12-18T05:26:43.850Z,101498.33
2022-12-18T05:29:15.918Z,101502.52
2022-12-18T05:31:48.115Z,101503.91
2022-12-18T05:34:20.260Z,101508.45
2022-12-18T05:36:52.320Z,101508.64
2022-12-18T05:39:24.251Z,101515.42
2022-12-18T05:41:56.251Z,101518.21
2022-12-18T05:44:28.418Z,101522.23
2022-12-18T05:47:00.398Z,101523.44
2022-12-18T05:49:32.652Z,101523.61
2022-12-18T05:52:04.656Z,101521.33
2022-12-18T05:54:37.167Z,101525.52
2022-12-18T05:57:09.266Z,101531.80
2022-12-18T05:59:41.224Z,101527.25
2022-12-18T06:02:13.308Z,101531.27
2022-12-18T06:04:45.513Z,101531.96
2022-12-18T06:07:17.525Z,101536.86
2022-12-18T06:09:49.693Z,101542.61
2022-12-18T06:12:22.382Z,101546.79
2022-12-18T06:14:54.448Z,101548.88
2022-12-18T06:17:29.969Z,101548.86
2022-12-18T06:20:02.370Z,101552.01
2022-12-18T06:22:36.066Z,101560.20
2022-12-18T06:25:10.481Z,101562.48
2022-12-18T06:27:42.758Z,101567.89
2022-12-18T06:30:16.838Z,101572.41
2022-12-18T06:32:53.201Z,101569.08
2022-12-18T06:35:28.584Z,101568.20
2022-12-18T06:38:00.581Z,101569.77
2022-12-18T06:40:32.803Z,101577.27
2022-12-18T06:43:04.785Z,101581.10
2022-12-18T06:45:37.194Z,101584.77
2022-12-18T06:48:09.837Z,101584.76
2022-12-18T06:50:45.798Z,101583.88
2022-12-18T06:53:17.860Z,101586.33
2022-12-18T06:55:50.065Z,101590.69
2022-12-18T06:58:22.095Z,101596.27
2022-12-18T07:00:54.204Z,101599.08
2022-12-18T07:03:26.335Z,101596.63
2022-12-18T07:05:58.602Z,101600.64
2022-12-18T07:08:30.632Z,101607.11
2022-12-18T07:11:05.222Z,101608.00
2022-12-18T07:13:37.624Z,101608.02
2022-12-18T07:16:18.496Z,101609.96
2022-12-18T07:18:53.374Z,101616.25
2022-12-18T07:21:26.912Z,101615.90
2022-12-18T07:23:58.940Z,101622.90
2022-12-18T07:26:31.003Z,101625.88
2022-12-18T07:29:03.075Z,101630.95
2022-12-18T07:31:35.083Z,101636.56
2022-12-18T07:34:07.204Z,101639.70
2022-12-18T07:36:39.205Z,101645.13
2022-12-18T07:39:12.565Z,101652.81
2022-12-18T07:41:47.600Z,101656.48
2022-12-18T07:44:21.633Z,101658.59
2022-12-18T07:46:53.677Z,101657.71
2022-12-18T07:49:25.745Z,101658.23
2022-12-18T07:51:59.572Z,101658.75
2022-12-18T07:54:31.856Z,101654.56
2022-12-18T07:57:03.888Z,101658.39
2022-12-18T07:59:35.824Z,101659.80
2022-12-18T08:02:08.285Z,101661.86
2022-12-18T08:04:40.395Z,101662.91
2022-12-18T08:07:12.462Z,101667.09
2022-12-18T08:09:44.526Z,101665.34
2022-12-18T08:12:16.561Z,101668.66
2022-12-18T08:14:48.658Z,101667.08
2022-12-18T08:17:21.340Z,101660.80
2022-12-18T08:19:53.406Z,101662.88
2022-12-18T08:22:25.443Z,101670.56
2022-12-18T08:24:57.538Z,101684.17
2022-12-18T08:27:30.306Z,101683.11
2022-12-18T08:30:02.799Z,101689.58
2022-12-18T08:32:35.180Z,101696.91
2022-12-18T08:35:09.007Z,101697.06
2022-12-18T08:37:42.171Z,101696.89
2022-12-18T08:40:15.581Z,101700.38
2022-12-18T08:43:05.658Z,101703.85
2022-12-18T08:45:38.260Z,101706.46
2022-12-18T08:48:10.507Z,101710.99
2022-12-18T08:50:42.574Z,101714.48
2022-12-18T08:53:14.639Z,101712.39
2022-12-18T08:55:50.188Z,101712.04
2022-12-18T08:58:22.664Z,101713.09
2022-12-18T09:00:54.769Z,101710.81
2022-12-18T09:03:26.945Z,101708.88
2022-12-18T09:05:59.066Z,101710.80
2022-12-18T09:08:31.952Z,101710.98
2022-12-18T09:11:04.382Z,101713.58
2022-12-18T09:13:36.393Z,101715.65
2022-12-18T09:16:09.452Z,101719.14
2022-12-18T09:18:42.197Z,101717.73
2022-12-18T09:21:17.644Z,101717.38
2022-12-18T09:23:53.172Z,101711.26
2022-12-18T09:26:26.216Z,101710.21
2022-12-18T09:28:58.312Z,101699.55
2022-12-18T09:31:30.378Z,101700.95
2022-12-18T09:34:02.344Z,101702.00
2022-12-18T09:36:34.483Z,101710.03
2022-12-18T09:39:08.836Z,101717.55
2022-12-18T09:41:46.892Z,101719.98
2022-12-18T09:44:27.770Z,101725.21
2022-12-18T09:47:13.796Z,101727.14
2022-12-18T09:49:47.817Z,101727.15
2022-12-18T09:52:26.230Z,101722.43
2022-12-18T09:55:03.899Z,101718.77
2022-12-18T09:57:42.824Z,101715.45
2022-12-18T10:00:22.242Z,101709.52
2022-12-18T10:02:59.988Z,101709.50
2022-12-18T10:05:40.149Z,101711.42
2022-12-18T10:08:18.361Z,101708.30
2022-12-18T10:10:54.505Z,101707.95
2022-12-18T10:13:36.183Z,101708.11
2022-12-18T10:16:20.122Z,101703.23
2022-12-18T10:19:07.088Z,101699.21
2022-12-18T10:21:46.308Z,101691.88
2022-12-18T10:24:26.906Z,101687.70
2022-12-18T10:27:11.842Z,101687.00
2022-12-18T10:29:45.546Z,101684.02
2022-12-18T10:32:20.617Z,101671.63
2022-12-18T10:35:00.453Z,101666.39
2022-12-18T10:37:33.631Z,101673.38
2022-12-18T10:40:22.022Z,101669.35
2022-12-18T10:43:07.833Z,101661.50
2022-12-18T10:45:40.447Z,101668.84
2022-12-18T10:48:24.045Z,101666.91
2022-12-18T10:51:12.669Z,101660.45
2022-12-18T10:53:53.790Z,101661.47
2022-12-18T10:56:28.031Z,101661.13
2022-12-18T10:59:07.161Z,101667.23
2022-12-18T11:01:53.072Z,101664.61
2022-12-18T11:04:28.545Z,101664.77
2022-12-18T11:07:04.019Z,101656.74
2022-12-18T11:09:38.158Z,101662.16
2022-12-18T11:12:24.776Z,101661.96
2022-12-18T11:15:01.343Z,101666.50
2022-12-18T11:17:37.089Z,101664.58
2022-12-18T11:20:23.595Z,101668.24
2022-12-18T11:23:01.367Z,101676.27
2022-12-18T11:25:36.337Z,101679.40
2022-12-18T11:28:28.876Z,101682.90
2022-12-18T11:31:25.928Z,101684.11
2022-12-18T11:34:28.062Z,101686.58
2022-12-18T11:37:00.796Z,101685.37
2022-12-18T11:39:39.709Z,101685.92
2022-12-18T11:42:21.300Z,101686.81
2022-12-18T11:44:57.288Z,101686.98
2022-12-18T11:47:36.694Z,101685.42
2022-12-18T11:50:16.446Z,101685.27
2022-12-18T11:52:54.331Z,101685.46
2022-12-18T11:55:37.983Z,101684.27
2022-12-18T11:58:22.453Z,101684.62
2022-12-18T12:01:08.738Z,101682.19
2022-12-18T12:03:59.118Z,101678.17
2022-12-18T12:06:42.261Z,101682.73
2022-12-18T12:09:22.518Z,101690.60
2022-12-18T12:12:12.914Z,101691.84
2022-12-18T12:14:54.403Z,101691.52
2022-12-18T12:17:38.317Z,101699.20
2022-12-18T12:20:18.707Z,101701.29
2022-12-18T12:23:00.400Z,101700.42
2022-12-18T12:25:42.160Z,101698.34
2022-12-18T12:28:30.952Z,101693.46
2022-12-18T12:31:12.578Z,101699.42
2022-12-18T12:33:55.363Z,101699.08
2022-12-18T12:36:35.367Z,101691.21
2022-12-18T12:39:11.896Z,101684.58
2022-12-18T12:42:05.146Z,101690.70
2022-12-18T12:44:42.536Z,101693.67
2022-12-18T12:47:18.768Z,101695.05
2022-12-18T12:49:51.944Z,101701.00
2022-12-18T12:52:35.090Z,101702.92
2022-12-18T12:55:17.226Z,101700.82
2022-12-18T12:57:58.403Z,101701.34
2022-12-18T13:00:33.841Z,101697.84
2022-12-18T13:03:18.005Z,101700.09
2022-12-18T13:05:55.594Z,101701.65
2022-12-18T13:08:31.162Z,101697.63
2022-12-18T13:11:23.483Z,101703.90
2022-12-18T13:13:57.361Z,101705.83
2022-12-18T13:16:30.586Z,101713.68
2022-12-18T13:19:02.578Z,101710.19
2022-12-18T13:21:36.692Z,101708.42
2022-12-18T13:24:28.764Z,101706.48
2022-12-18T13:27:01.481Z,101698.45
2022-12-18T13:29:53.516Z,101693.55
2022-12-18T13:32:27.365Z,101695.79
2022-12-18T13:35:30.293Z,101696.16
2022-12-18T13:38:02.849Z,101690.55
2022-12-18T13:41:02.403Z,101689.84
2022-12-18T13:43:44.037Z,101687.73
2022-12-18T13:46:29.409Z,101693.65
2022-12-18T13:49:05.500Z,101700.09
2022-12-18T13:51:41.863Z,101702.70
2022-12-18T13:54:19.735Z,101707.07
2022-12-18T13:56:52.894Z,101705.83
2022-12-18T13:59:26.601Z,101703.92
2022-12-18T14:02:02.201Z,101705.30
2022-12-18T14:04:37.809Z,101706.00
2022-12-18T14:07:14.325Z,101706.68
2022-12-18T14:10:01.865Z,101710.33
2022-12-18T14:13:05.093Z,101709.98
2022-12-18T14:15:41.691Z,101710.65
2022-12-18T14:18:25.001Z,101707.86
2022-12-18T14:20:59.741Z,101714.84
2022-12-18T14:23:37.938Z,101712.75
2022-12-18T14:26:26.487Z,101715.00
2022-12-18T14:28:59.145Z,101716.73
2022-12-18T14:31:33.495Z,101716.73
2022-12-18T14:34:05.500Z,101717.25
2022-12-18T14:36:37.622Z,101717.58
2022-12-18T14:39:19.178Z,101727.36
2022-12-18T14:41:52.300Z,101724.89
2022-12-18T14:44:24.290Z,101724.71
2022-12-18T14:46:56.431Z,101726.64
2022-12-18T14:49:32.160Z,101728.38
2022-12-18T14:52:09.252Z,101728.02
2022-12-18T14:54:48.708Z,101725.58
2022-12-18T14:57:26.116Z,101727.16
2022-12-18T15:00:09.155Z,101725.08
2022-12-18T15:02:41.602Z,101726.30
2022-12-18T15:05:40.016Z,101732.25
2022-12-18T15:08:37.954Z,101741.86
2022-12-18T15:11:30.882Z,101746.08
2022-12-18T15:14:23.561Z,101749.59
2022-12-18T15:16:57.086Z,101757.63
2022-12-18T15:19:37.933Z,101760.41
2022-12-18T15:22:27.983Z,101763.71
2022-12-18T15:25:01.413Z,101764.77
2022-12-18T15:27:36.912Z,101762.16
2022-12-18T15:30:25.138Z,101768.98
2022-12-18T15:33:25.987Z,101776.48
2022-12-18T15:36:02.454Z,101779.45
2022-12-18T15:38:35.588Z,101778.08
2022-12-18T15:41:22.871Z,101782.95
2022-12-18T15:43:57.227Z,101778.94
2022-12-18T15:46:29.865Z,101782.45
2022-12-18T15:49:03.142Z,101784.01
2022-12-18T15:51:38.517Z,101782.08
2022-12-18T15:54:16.717Z,101786.79
2022-12-18T15:57:06.466Z,101789.92
2022-12-18T15:59:38.806Z,101788.69
2022-12-18T16:02:18.918Z,101786.61
2022-12-18T16:04:51.473Z,101787.48
2022-12-18T16:07:25.058Z,101787.29
2022-12-18T16:09:59.899Z,101789.56
2022-12-18T16:12:35.489Z,101779.58
2022-12-18T16:15:13.016Z,101775.04
2022-12-18T16:17:46.009Z,101774.85
2022-12-18T16:20:21.849Z,101770.30
2022-12-18T16:22:54.849Z,101767.49
2022-12-18T16:25:28.750Z,101764.70
2022-12-18T16:28:00.956Z,101757.00
2022-12-18T16:30:35.788Z,101763.81
2022-12-18T16:33:12.571Z,101770.09
2022-12-18T16:35:44.733Z,101772.02
2022-12-18T16:38:16.799Z,101769.90
2022-12-18T16:41:02.691Z,101757.48
2022-12-18T16:43:34.759Z,101751.71
2022-12-18T16:46:07.311Z,101747.00
2022-12-18T16:48:39.912Z,101749.95
2022-12-18T16:51:11.980Z,101741.56
2022-12-18T16:53:44.758Z,101735.80
2022-12-18T16:56:17.033Z,101737.02
2022-12-18T16:58:53.944Z,101735.79
2022-12-18T17:01:27.001Z,101736.30
2022-12-18T17:04:01.185Z,101732.60
2022-12-18T17:06:35.354Z,101731.02
2022-12-18T17:09:09.095Z,101725.77
2022-12-18T17:11:41.205Z,101728.39
2022-12-18T17:14:17.136Z,101729.95
2022-12-18T17:17:01.889Z,101738.83
2022-12-18T17:19:40.038Z,101738.80
2022-12-18T17:22:12.209Z,101743.16
2022-12-18T17:24:44.311Z,101746.10
2022-12-18T17:27:16.745Z,101743.16
2022-12-18T17:29:50.348Z,101739.33
2022-12-18T17:32:22.516Z,101740.89
2022-12-18T17:34:54.583Z,101742.46
2022-12-18T17:37:26.957Z,101747.52
2022-12-18T17:39:59.026Z,101747.92
2022-12-18T17:42:30.989Z,101753.66
2022-12-18T17:45:03.463Z,101757.00
2022-12-18T17:47:38.397Z,101753.67
2022-12-18T17:50:11.704Z,101751.58
2022-12-18T17:52:43.761Z,101749.84
2022-12-18T17:55:16.310Z,101751.92
2022-12-18T17:57:48.404Z,101758.91
2022-12-18T18:00:22.013Z,101767.12
2022-12-18T18:02:54.292Z,101770.08
2022-12-18T18:05:26.649Z,101769.06
2022-12-18T18:07:59.134Z,101763.64
2022-12-18T18:10:33.353Z,101761.76
2022-12-18T18:13:25.990Z,101766.66
2022-12-18T18:16:03.722Z,101758.81
2022-12-18T18:18:36.329Z,101759.88
2022-12-18T18:21:10.152Z,101757.95
2022-12-18T18:23:43.242Z,101758.66
2022-12-18T18:26:17.482Z,101766.35
2022-12-18T18:28:50.672Z,101772.66
2022-12-18T18:31:22.868Z,101780.52
2022-12-18T18:33:55.012Z,101780.73
2022-12-18T18:36:27.457Z,101778.65
2022-12-18T18:39:01.497Z,101779.52
2022-12-18T18:41:33.671Z,101785.81
2022-12-18T18:44:06.043Z,101782.31
2022-12-18T18:46:38.518Z,101770.62
2022-12-18T18:49:11.242Z,101773.23
2022-12-18T18:51:44.039Z,101779.20
2022-12-18T18:54:16.380Z,101783.04
2022-12-18T18:59:42.096Z,101790.74
2022-12-18T19:02:16.743Z,101791.97
2022-12-18T19:04:48.856Z,101793.91
2022-12-18T19:07:30.339Z,101788.67
2022-12-18T19:10:05.502Z,101790.60
2022-12-18T19:12:55.809Z,101793.23
2022-12-18T19:15:27.977Z,101789.73
2022-12-18T19:18:00.453Z,101787.65
2022-12-18T19:20:32.622Z,101779.44
2022-12-18T19:23:05.201Z,101774.02
2022-12-18T19:25:41.594Z,101773.84
2022-12-18T19:28:21.282Z,101777.52
2022-12-18T19:30:59.405Z,101778.40
2022-12-18T19:33:43.261Z,101777.70
2022-12-18T19:36:22.635Z,101780.84
2022-12-18T19:38:56.847Z,101781.89
2022-12-18T19:41:31.262Z,101782.08
2022-12-18T19:44:07.399Z,101778.05
2022-12-18T19:46:42.443Z,101774.91
2022-12-18T19:49:17.644Z,101779.30
2022-12-18T19:51:50.175Z,101777.91
2022-12-18T19:54:22.734Z,101771.08
2022-12-18T19:56:54.799Z,101773.35
2022-12-18T19:59:27.379Z,101774.05
2022-12-18T20:01:59.612Z,101774.92
2022-12-18T20:04:32.211Z,101779.80
2022-12-18T20:07:05.009Z,101779.46
2022-12-18T20:09:37.588Z,101781.02
2022-12-18T20:12:11.089Z,101778.95
2022-12-18T20:14:43.153Z,101776.15
2022-12-18T20:17:15.215Z,101774.94
2022-12-18T20:19:47.698Z,101770.91
2022-12-18T20:22:20.024Z,101765.69
2022-12-18T20:24:52.135Z,101769.19
2022-12-18T20:27:24.305Z,101769.71
2022-12-18T20:29:56.272Z,101766.74
2022-12-18T20:32:35.336Z,101767.80
2022-12-18T20:35:10.162Z,101766.07
2022-12-18T20:37:48.683Z,101767.99
2022-12-18T20:40:23.068Z,101763.45
2022-12-18T20:42:55.135Z,101764.67
2022-12-18T20:45:29.044Z,101758.91
2022-12-18T20:48:01.688Z,101760.33
2022-12-18T20:50:34.321Z,101762.41
2022-12-18T20:53:06.690Z,101761.71
2022-12-18T20:55:44.849Z,101754.04
2022-12-18T20:58:16.954Z,101750.54
2022-12-18T21:00:49.039Z,101751.95
2022-12-18T21:03:21.254Z,101751.42
2022-12-18T21:05:53.460Z,101748.81
2022-12-18T21:08:28.289Z,101744.80
2022-12-18T21:11:32.816Z,101745.16
2022-12-18T21:14:06.518Z,101742.89
2022-12-18T21:16:40.117Z,101740.10
2022-12-18T21:19:13.960Z,101740.11
2022-12-18T21:21:47.439Z,101742.03
2022-12-18T21:24:20.436Z,101750.44
2022-12-18T21:26:53.200Z,101753.92
2022-12-18T21:29:27.805Z,101755.34
2022-12-18T21:32:00.116Z,101759.70
2022-12-18T21:34:34.280Z,101763.03
2022-12-18T21:37:06.691Z,101757.61
2022-12-18T21:39:39.787Z,101755.70
2022-12-18T21:42:30.493Z,101762.50
2022-12-18T21:45:02.900Z,101768.27
2022-12-18T21:47:35.033Z,101770.72
2022-12-18T21:50:08.956Z,101770.02
2022-12-18T21:52:41.103Z,101770.90
2022-12-18T21:55:13.285Z,101775.63
2022-12-18T21:57:45.342Z,101777.54
2022-12-18T22:00:19.815Z,101777.90
2022-12-18T22:03:05.643Z,101776.33
2022-12-18T22:05:44.476Z,101775.63
2022-12-18T22:08:16.748Z,101771.28
2022-12-18T22:10:48.811Z,101768.83
2022-12-18T22:13:20.981Z,101766.73
2022-12-18T22:15:53.089Z,101764.64
2022-12-18T22:18:25.216Z,101761.84
2022-12-18T22:21:05.987Z,101761.33
2022-12-18T22:23:38.057Z,101758.55
2022-12-18T22:26:10.916Z,101755.92
2022-12-18T22:29:00.770Z,101749.64
2022-12-18T22:31:32.980Z,101749.30
2022-12-18T22:34:05.933Z,101752.27
2022-12-18T22:36:42.449Z,101759.95
2022-12-18T22:39:17.279Z,101753.66
2022-12-18T22:41:50.164Z,101749.13
2022-12-18T22:44:22.880Z,101749.28
2022-12-18T22:47:06.792Z,101757.16
2022-12-18T22:49:40.086Z,101743.70
2022-12-18T22:52:12.766Z,101739.17
2022-12-18T22:54:47.213Z,101733.60
2022-12-18T22:57:19.154Z,101736.04
2022-12-18T22:59:56.562Z,101735.87
2022-12-18T23:02:31.970Z,101733.08
2022-12-18T23:05:07.023Z,101731.33
2022-12-18T23:07:39.194Z,101730.27
2022-12-18T23:10:12.559Z,101728.70
2022-12-18T23:12:44.861Z,101717.71
2022-12-18T23:15:17.132Z,101709.15
2022-12-18T23:17:51.484Z,101704.60
2022-12-18T23:20:23.520Z,101697.99
2022-12-18T23:22:55.556Z,101697.10
2022-12-18T23:25:27.652Z,101695.52
2022-12-18T23:27:59.717Z,101690.47
2022-12-18T23:30:32.806Z,101688.02
2022-12-18T23:33:05.077Z,101686.80
2022-12-18T23:35:37.453Z,101677.73
2022-12-18T23:38:09.517Z,101674.23
2022-12-18T23:40:41.485Z,101677.73
2022-12-18T23:43:15.083Z,101676.14
2022-12-18T23:45:51.094Z,101677.54
2022-12-18T23:48:26.078Z,101674.94
2022-12-18T23:50:58.476Z,101672.66
2022-12-18T23:53:30.621Z,101668.30
2022-12-18T23:56:03.507Z,101661.31
2022-12-18T23:58:36.655Z,101663.92
